sensor_id;sensor_type;location;lat;lon;timestamp;P1;durP1;ratioP1;P2;durP2;ratioP2
43124;SDS011;49182;50.788;7.318;2023-06-14T00:01:07;7.50;;;5.20;;
43124;SDS011;49182;50.788;7.318;2023-06-14T00:03:33;8.30;;;5.68;;
43124;SDS011;49182;50.788;7.318;2023-06-14T00:06:00;10.13;;;5.32;;
43124;SDS011;49182;50.788;7.318;2023-06-14T00:08:28;8.55;;;5.50;;
43124;SDS011;49182;50.788;7.318;2023-06-14T00:10:55;8.80;;;5.68;;
43124;SDS011;49182;50.788;7.318;2023-06-14T00:13:21;8.75;;;5.57;;
43124;SDS011;49182;50.788;7.318;2023-06-14T00:15:48;8.82;;;5.20;;
43124;SDS011;49182;50.788;7.318;2023-06-14T00:18:14;14.82;;;5.15;;
43124;SDS011;49182;50.788;7.318;2023-06-14T00:20:41;7.93;;;5.35;;
43124;SDS011;49182;50.788;7.318;2023-06-14T00:23:08;9.13;;;5.35;;
43124;SDS011;49182;50.788;7.318;2023-06-14T00:25:36;8.85;;;5.78;;
43124;SDS011;49182;50.788;7.318;2023-06-14T00:28:03;11.45;;;5.43;;
43124;SDS011;49182;50.788;7.318;2023-06-14T00:30:30;9.90;;;5.68;;
43124;SDS011;49182;50.788;7.318;2023-06-14T00:32:56;8.07;;;5.53;;
43124;SDS011;49182;50.788;7.318;2023-06-14T00:35:24;9.18;;;5.82;;
43124;SDS011;49182;50.788;7.318;2023-06-14T00:37:51;10.70;;;5.82;;
43124;SDS011;49182;50.788;7.318;2023-06-14T00:40:18;8.57;;;5.57;;
43124;SDS011;49182;50.788;7.318;2023-06-14T00:42:46;7.93;;;5.15;;
43124;SDS011;49182;50.788;7.318;2023-06-14T00:45:12;8.00;;;5.15;;
43124;SDS011;49182;50.788;7.318;2023-06-14T00:47:40;8.98;;;5.65;;
43124;SDS011;49182;50.788;7.318;2023-06-14T00:50:08;11.48;;;5.82;;
43124;SDS011;49182;50.788;7.318;2023-06-14T00:52:35;9.65;;;5.63;;
43124;SDS011;49182;50.788;7.318;2023-06-14T00:55:02;8.93;;;5.30;;
43124;SDS011;49182;50.788;7.318;2023-06-14T00:57:30;7.35;;;5.25;;
43124;SDS011;49182;50.788;7.318;2023-06-14T00:59:58;9.75;;;5.25;;
43124;SDS011;49182;50.788;7.318;2023-06-14T01:02:25;9.27;;;5.90;;
43124;SDS011;49182;50.788;7.318;2023-06-14T01:04:52;11.73;;;5.55;;
43124;SDS011;49182;50.788;7.318;2023-06-14T01:07:23;9.10;;;5.85;;
43124;SDS011;49182;50.788;7.318;2023-06-14T01:10:04;10.07;;;5.60;;
43124;SDS011;49182;50.788;7.318;2023-06-14T01:12:44;8.40;;;5.60;;
43124;SDS011;49182;50.788;7.318;2023-06-14T01:15:20;11.10;;;5.75;;
43124;SDS011;49182;50.788;7.318;2023-06-14T01:17:47;8.93;;;5.85;;
43124;SDS011;49182;50.788;7.318;2023-06-14T01:20:16;10.15;;;5.68;;
43124;SDS011;49182;50.788;7.318;2023-06-14T01:22:48;8.77;;;5.60;;
43124;SDS011;49182;50.788;7.318;2023-06-14T01:25:17;7.57;;;5.50;;
43124;SDS011;49182;50.788;7.318;2023-06-14T01:27:44;8.25;;;5.95;;
43124;SDS011;49182;50.788;7.318;2023-06-14T01:30:11;10.93;;;5.70;;
43124;SDS011;49182;50.788;7.318;2023-06-14T01:32:39;12.50;;;5.85;;
43124;SDS011;49182;50.788;7.318;2023-06-14T01:35:06;7.93;;;5.75;;
43124;SDS011;49182;50.788;7.318;2023-06-14T01:37:33;9.88;;;6.20;;
43124;SDS011;49182;50.788;7.318;2023-06-14T01:40:03;8.43;;;5.15;;
43124;SDS011;49182;50.788;7.318;2023-06-14T01:42:32;9.45;;;6.18;;
43124;SDS011;49182;50.788;7.318;2023-06-14T01:45:00;9.55;;;5.88;;
43124;SDS011;49182;50.788;7.318;2023-06-14T01:47:28;10.00;;;6.10;;
43124;SDS011;49182;50.788;7.318;2023-06-14T01:49:55;10.15;;;5.65;;
43124;SDS011;49182;50.788;7.318;2023-06-14T01:52:22;10.20;;;5.68;;
43124;SDS011;49182;50.788;7.318;2023-06-14T01:54:48;12.38;;;6.43;;
43124;SDS011;49182;50.788;7.318;2023-06-14T01:57:16;9.52;;;6.03;;
43124;SDS011;49182;50.788;7.318;2023-06-14T01:59:43;8.45;;;5.90;;
43124;SDS011;49182;50.788;7.318;2023-06-14T02:02:09;8.50;;;5.88;;
43124;SDS011;49182;50.788;7.318;2023-06-14T02:04:36;8.80;;;5.57;;
43124;SDS011;49182;50.788;7.318;2023-06-14T02:07:03;10.48;;;5.80;;
43124;SDS011;49182;50.788;7.318;2023-06-14T02:09:30;11.65;;;6.97;;
43124;SDS011;49182;50.788;7.318;2023-06-14T02:11:56;8.75;;;5.97;;
43124;SDS011;49182;50.788;7.318;2023-06-14T02:14:24;7.28;;;5.50;;
43124;SDS011;49182;50.788;7.318;2023-06-14T02:16:51;9.70;;;6.03;;
43124;SDS011;49182;50.788;7.318;2023-06-14T02:19:18;9.35;;;5.60;;
43124;SDS011;49182;50.788;7.318;2023-06-14T02:21:45;10.52;;;6.10;;
43124;SDS011;49182;50.788;7.318;2023-06-14T02:24:12;10.55;;;6.18;;
43124;SDS011;49182;50.788;7.318;2023-06-14T02:26:39;10.77;;;5.90;;
43124;SDS011;49182;50.788;7.318;2023-06-14T02:29:06;9.60;;;5.68;;
43124;SDS011;49182;50.788;7.318;2023-06-14T02:31:36;10.68;;;5.90;;
43124;SDS011;49182;50.788;7.318;2023-06-14T02:34:04;8.32;;;5.63;;
43124;SDS011;49182;50.788;7.318;2023-06-14T02:36:30;9.02;;;5.72;;
43124;SDS011;49182;50.788;7.318;2023-06-14T02:38:59;11.07;;;6.38;;
43124;SDS011;49182;50.788;7.318;2023-06-14T02:41:26;10.20;;;6.50;;
43124;SDS011;49182;50.788;7.318;2023-06-14T02:43:53;10.23;;;5.80;;
43124;SDS011;49182;50.788;7.318;2023-06-14T02:46:19;9.55;;;5.93;;
43124;SDS011;49182;50.788;7.318;2023-06-14T02:48:50;13.45;;;6.28;;
43124;SDS011;49182;50.788;7.318;2023-06-14T02:51:16;9.52;;;6.13;;
43124;SDS011;49182;50.788;7.318;2023-06-14T02:53:43;9.80;;;5.80;;
43124;SDS011;49182;50.788;7.318;2023-06-14T02:56:09;8.95;;;5.85;;
43124;SDS011;49182;50.788;7.318;2023-06-14T02:58:37;9.73;;;6.13;;
43124;SDS011;49182;50.788;7.318;2023-06-14T03:01:04;10.23;;;5.90;;
43124;SDS011;49182;50.788;7.318;2023-06-14T03:03:32;11.20;;;6.22;;
43124;SDS011;49182;50.788;7.318;2023-06-14T03:06:00;10.07;;;6.00;;
43124;SDS011;49182;50.788;7.318;2023-06-14T03:08:27;8.73;;;5.95;;
43124;SDS011;49182;50.788;7.318;2023-06-14T03:10:56;10.18;;;6.50;;
43124;SDS011;49182;50.788;7.318;2023-06-14T03:13:23;8.93;;;5.88;;
43124;SDS011;49182;50.788;7.318;2023-06-14T03:15:51;9.43;;;6.32;;
43124;SDS011;49182;50.788;7.318;2023-06-14T03:18:19;9.57;;;6.00;;
43124;SDS011;49182;50.788;7.318;2023-06-14T03:20:45;10.10;;;5.97;;
43124;SDS011;49182;50.788;7.318;2023-06-14T03:23:13;11.68;;;6.05;;
43124;SDS011;49182;50.788;7.318;2023-06-14T03:25:40;12.55;;;6.25;;
43124;SDS011;49182;50.788;7.318;2023-06-14T03:28:08;9.38;;;5.85;;
43124;SDS011;49182;50.788;7.318;2023-06-14T03:30:34;10.10;;;5.80;;
43124;SDS011;49182;50.788;7.318;2023-06-14T03:33:01;9.27;;;5.88;;
43124;SDS011;49182;50.788;7.318;2023-06-14T03:35:29;11.23;;;6.28;;
43124;SDS011;49182;50.788;7.318;2023-06-14T03:37:55;7.25;;;5.10;;
43124;SDS011;49182;50.788;7.318;2023-06-14T03:40:25;9.13;;;5.93;;
43124;SDS011;49182;50.788;7.318;2023-06-14T03:42:53;9.35;;;5.40;;
43124;SDS011;49182;50.788;7.318;2023-06-14T03:45:20;9.90;;;5.80;;
43124;SDS011;49182;50.788;7.318;2023-06-14T03:47:47;10.73;;;6.40;;
43124;SDS011;49182;50.788;7.318;2023-06-14T03:50:14;10.88;;;6.72;;
43124;SDS011;49182;50.788;7.318;2023-06-14T03:52:42;10.60;;;6.53;;
43124;SDS011;49182;50.788;7.318;2023-06-14T03:55:08;11.57;;;6.20;;
43124;SDS011;49182;50.788;7.318;2023-06-14T03:57:41;11.48;;;6.30;;
43124;SDS011;49182;50.788;7.318;2023-06-14T04:00:12;11.75;;;6.38;;
43124;SDS011;49182;50.788;7.318;2023-06-14T04:02:40;8.15;;;5.53;;
43124;SDS011;49182;50.788;7.318;2023-06-14T04:05:08;10.23;;;5.75;;
43124;SDS011;49182;50.788;7.318;2023-06-14T04:07:37;9.52;;;6.18;;
43124;SDS011;49182;50.788;7.318;2023-06-14T04:10:05;9.57;;;6.07;;
43124;SDS011;49182;50.788;7.318;2023-06-14T04:12:32;11.88;;;5.80;;
43124;SDS011;49182;50.788;7.318;2023-06-14T04:15:00;7.90;;;5.60;;
43124;SDS011;49182;50.788;7.318;2023-06-14T04:17:45;8.57;;;5.68;;
43124;SDS011;49182;50.788;7.318;2023-06-14T04:20:12;13.48;;;6.35;;
43124;SDS011;49182;50.788;7.318;2023-06-14T04:22:40;10.43;;;6.13;;
43124;SDS011;49182;50.788;7.318;2023-06-14T04:25:07;9.38;;;5.85;;
43124;SDS011;49182;50.788;7.318;2023-06-14T04:27:34;10.55;;;5.97;;
43124;SDS011;49182;50.788;7.318;2023-06-14T04:30:03;11.05;;;5.97;;
43124;SDS011;49182;50.788;7.318;2023-06-14T04:32:35;13.82;;;5.28;;
43124;SDS011;49182;50.788;7.318;2023-06-14T04:35:02;8.23;;;5.68;;
43124;SDS011;49182;50.788;7.318;2023-06-14T04:37:31;10.02;;;5.60;;
43124;SDS011;49182;50.788;7.318;2023-06-14T04:39:58;8.10;;;5.35;;
43124;SDS011;49182;50.788;7.318;2023-06-14T04:42:25;8.35;;;5.20;;
43124;SDS011;49182;50.788;7.318;2023-06-14T04:44:52;8.30;;;5.03;;
43124;SDS011;49182;50.788;7.318;2023-06-14T04:47:20;10.32;;;5.20;;
43124;SDS011;49182;50.788;7.318;2023-06-14T04:49:47;7.15;;;4.75;;
43124;SDS011;49182;50.788;7.318;2023-06-14T04:52:13;9.00;;;5.00;;
43124;SDS011;49182;50.788;7.318;2023-06-14T04:54:43;7.93;;;4.93;;
43124;SDS011;49182;50.788;7.318;2023-06-14T04:57:12;7.57;;;5.25;;
43124;SDS011;49182;50.788;7.318;2023-06-14T04:59:40;9.18;;;4.88;;
43124;SDS011;49182;50.788;7.318;2023-06-14T05:02:07;6.88;;;4.55;;
43124;SDS011;49182;50.788;7.318;2023-06-14T05:04:35;8.13;;;4.78;;
43124;SDS011;49182;50.788;7.318;2023-06-14T05:07:02;8.35;;;5.00;;
43124;SDS011;49182;50.788;7.318;2023-06-14T05:09:28;7.75;;;5.05;;
43124;SDS011;49182;50.788;7.318;2023-06-14T05:11:55;9.63;;;4.82;;
43124;SDS011;49182;50.788;7.318;2023-06-14T05:14:22;9.68;;;5.68;;
43124;SDS011;49182;50.788;7.318;2023-06-14T05:16:50;9.38;;;5.18;;
43124;SDS011;49182;50.788;7.318;2023-06-14T05:19:16;8.25;;;4.95;;
43124;SDS011;49182;50.788;7.318;2023-06-14T05:21:44;9.05;;;4.80;;
43124;SDS011;49182;50.788;7.318;2023-06-14T05:24:11;8.15;;;5.13;;
43124;SDS011;49182;50.788;7.318;2023-06-14T05:26:38;6.82;;;4.82;;
43124;SDS011;49182;50.788;7.318;2023-06-14T05:29:04;8.57;;;4.93;;
43124;SDS011;49182;50.788;7.318;2023-06-14T05:31:31;9.10;;;5.30;;
43124;SDS011;49182;50.788;7.318;2023-06-14T05:33:58;7.82;;;5.05;;
43124;SDS011;49182;50.788;7.318;2023-06-14T05:36:24;8.15;;;5.03;;
43124;SDS011;49182;50.788;7.318;2023-06-14T05:38:53;8.05;;;5.25;;
43124;SDS011;49182;50.788;7.318;2023-06-14T05:41:19;8.50;;;5.30;;
43124;SDS011;49182;50.788;7.318;2023-06-14T05:43:46;9.93;;;5.25;;
43124;SDS011;49182;50.788;7.318;2023-06-14T05:46:13;8.98;;;5.15;;
43124;SDS011;49182;50.788;7.318;2023-06-14T05:48:39;8.35;;;4.50;;
43124;SDS011;49182;50.788;7.318;2023-06-14T05:51:06;7.50;;;4.88;;
43124;SDS011;49182;50.788;7.318;2023-06-14T05:53:33;9.70;;;4.65;;
43124;SDS011;49182;50.788;7.318;2023-06-14T05:56:01;8.00;;;4.90;;
43124;SDS011;49182;50.788;7.318;2023-06-14T05:58:28;10.32;;;5.20;;
43124;SDS011;49182;50.788;7.318;2023-06-14T06:00:54;7.82;;;4.70;;
43124;SDS011;49182;50.788;7.318;2023-06-14T06:03:21;7.43;;;4.70;;
43124;SDS011;49182;50.788;7.318;2023-06-14T06:05:48;8.50;;;4.45;;
43124;SDS011;49182;50.788;7.318;2023-06-14T06:08:14;8.88;;;4.25;;
43124;SDS011;49182;50.788;7.318;2023-06-14T06:10:41;6.35;;;3.97;;
43124;SDS011;49182;50.788;7.318;2023-06-14T06:13:10;6.82;;;3.92;;
43124;SDS011;49182;50.788;7.318;2023-06-14T06:15:38;8.80;;;3.22;;
43124;SDS011;49182;50.788;7.318;2023-06-14T06:18:04;8.55;;;3.38;;
43124;SDS011;49182;50.788;7.318;2023-06-14T06:20:31;7.03;;;3.40;;
43124;SDS011;49182;50.788;7.318;2023-06-14T06:22:58;5.43;;;2.60;;
43124;SDS011;49182;50.788;7.318;2023-06-14T06:25:25;8.15;;;3.05;;
43124;SDS011;49182;50.788;7.318;2023-06-14T06:27:53;8.50;;;3.40;;
43124;SDS011;49182;50.788;7.318;2023-06-14T06:30:21;6.60;;;3.30;;
43124;SDS011;49182;50.788;7.318;2023-06-14T06:32:48;8.02;;;3.33;;
43124;SDS011;49182;50.788;7.318;2023-06-14T06:35:15;8.25;;;2.88;;
43124;SDS011;49182;50.788;7.318;2023-06-14T06:37:42;6.32;;;2.92;;
43124;SDS011;49182;50.788;7.318;2023-06-14T06:40:09;6.20;;;2.67;;
43124;SDS011;49182;50.788;7.318;2023-06-14T06:42:36;5.55;;;2.70;;
43124;SDS011;49182;50.788;7.318;2023-06-14T06:45:04;6.82;;;2.78;;
43124;SDS011;49182;50.788;7.318;2023-06-14T06:47:33;7.05;;;2.80;;
43124;SDS011;49182;50.788;7.318;2023-06-14T06:50:00;4.90;;;2.33;;
43124;SDS011;49182;50.788;7.318;2023-06-14T06:52:26;5.90;;;2.58;;
43124;SDS011;49182;50.788;7.318;2023-06-14T06:54:53;12.55;;;2.63;;
43124;SDS011;49182;50.788;7.318;2023-06-14T06:57:19;6.40;;;2.17;;
43124;SDS011;49182;50.788;7.318;2023-06-14T06:59:47;3.30;;;1.88;;
43124;SDS011;49182;50.788;7.318;2023-06-14T07:02:14;6.57;;;2.05;;
43124;SDS011;49182;50.788;7.318;2023-06-14T07:04:43;7.30;;;1.88;;
43124;SDS011;49182;50.788;7.318;2023-06-14T07:07:09;5.90;;;2.00;;
43124;SDS011;49182;50.788;7.318;2023-06-14T07:09:36;4.78;;;2.20;;
43124;SDS011;49182;50.788;7.318;2023-06-14T07:12:03;3.72;;;1.98;;
43124;SDS011;49182;50.788;7.318;2023-06-14T07:14:30;4.22;;;1.83;;
43124;SDS011;49182;50.788;7.318;2023-06-14T07:16:57;5.68;;;2.10;;
43124;SDS011;49182;50.788;7.318;2023-06-14T07:19:24;6.00;;;1.90;;
43124;SDS011;49182;50.788;7.318;2023-06-14T07:21:52;3.42;;;1.83;;
43124;SDS011;49182;50.788;7.318;2023-06-14T07:24:20;4.05;;;1.88;;
43124;SDS011;49182;50.788;7.318;2023-06-14T07:26:46;4.05;;;1.70;;
43124;SDS011;49182;50.788;7.318;2023-06-14T07:29:13;4.07;;;1.80;;
43124;SDS011;49182;50.788;7.318;2023-06-14T07:31:40;3.75;;;1.75;;
43124;SDS011;49182;50.788;7.318;2023-06-14T07:34:07;10.60;;;2.25;;
43124;SDS011;49182;50.788;7.318;2023-06-14T07:36:33;3.42;;;1.55;;
43124;SDS011;49182;50.788;7.318;2023-06-14T07:39:01;3.85;;;1.70;;
43124;SDS011;49182;50.788;7.318;2023-06-14T07:41:28;3.83;;;1.42;;
43124;SDS011;49182;50.788;7.318;2023-06-14T07:43:55;6.60;;;1.67;;
43124;SDS011;49182;50.788;7.318;2023-06-14T07:46:22;5.78;;;1.70;;
43124;SDS011;49182;50.788;7.318;2023-06-14T07:48:48;3.63;;;1.60;;
43124;SDS011;49182;50.788;7.318;2023-06-14T07:51:15;3.25;;;1.58;;
43124;SDS011;49182;50.788;7.318;2023-06-14T07:53:42;4.03;;;1.58;;
43124;SDS011;49182;50.788;7.318;2023-06-14T07:56:10;7.72;;;1.83;;
43124;SDS011;49182;50.788;7.318;2023-06-14T07:58:37;3.42;;;1.58;;
43124;SDS011;49182;50.788;7.318;2023-06-14T08:01:03;5.25;;;1.83;;
43124;SDS011;49182;50.788;7.318;2023-06-14T08:03:30;4.15;;;1.70;;
43124;SDS011;49182;50.788;7.318;2023-06-14T08:05:57;5.47;;;1.83;;
43124;SDS011;49182;50.788;7.318;2023-06-14T08:08:24;4.18;;;1.60;;
43124;SDS011;49182;50.788;7.318;2023-06-14T08:10:51;4.72;;;1.40;;
43124;SDS011;49182;50.788;7.318;2023-06-14T08:13:19;3.30;;;1.50;;
43124;SDS011;49182;50.788;7.318;2023-06-14T08:15:45;3.10;;;1.38;;
43124;SDS011;49182;50.788;7.318;2023-06-14T08:18:12;7.22;;;1.67;;
43124;SDS011;49182;50.788;7.318;2023-06-14T08:20:39;5.07;;;1.52;;
43124;SDS011;49182;50.788;7.318;2023-06-14T08:23:05;3.08;;;1.50;;
43124;SDS011;49182;50.788;7.318;2023-06-14T08:25:32;4.72;;;1.50;;
43124;SDS011;49182;50.788;7.318;2023-06-14T08:27:59;4.75;;;1.60;;
43124;SDS011;49182;50.788;7.318;2023-06-14T08:30:27;7.93;;;1.40;;
43124;SDS011;49182;50.788;7.318;2023-06-14T08:32:53;4.72;;;1.48;;
43124;SDS011;49182;50.788;7.318;2023-06-14T08:35:36;2.95;;;1.30;;
43124;SDS011;49182;50.788;7.318;2023-06-14T08:38:02;4.20;;;1.15;;
43124;SDS011;49182;50.788;7.318;2023-06-14T08:40:29;4.60;;;1.35;;
43124;SDS011;49182;50.788;7.318;2023-06-14T08:42:57;3.60;;;1.45;;
43124;SDS011;49182;50.788;7.318;2023-06-14T08:45:24;2.35;;;1.10;;
43124;SDS011;49182;50.788;7.318;2023-06-14T08:47:55;4.22;;;1.20;;
43124;SDS011;49182;50.788;7.318;2023-06-14T08:50:22;3.58;;;1.17;;
43124;SDS011;49182;50.788;7.318;2023-06-14T08:52:55;3.38;;;1.10;;
43124;SDS011;49182;50.788;7.318;2023-06-14T08:55:22;3.47;;;1.20;;
43124;SDS011;49182;50.788;7.318;2023-06-14T08:57:50;3.13;;;1.23;;
43124;SDS011;49182;50.788;7.318;2023-06-14T09:00:17;3.13;;;1.30;;
43124;SDS011;49182;50.788;7.318;2023-06-14T09:02:45;3.28;;;1.42;;
43124;SDS011;49182;50.788;7.318;2023-06-14T09:05:13;4.72;;;1.52;;
43124;SDS011;49182;50.788;7.318;2023-06-14T09:07:40;3.10;;;1.50;;
43124;SDS011;49182;50.788;7.318;2023-06-14T09:10:08;4.53;;;1.27;;
43124;SDS011;49182;50.788;7.318;2023-06-14T09:12:35;3.25;;;1.23;;
43124;SDS011;49182;50.788;7.318;2023-06-14T09:15:02;4.25;;;1.67;;
43124;SDS011;49182;50.788;7.318;2023-06-14T09:17:29;3.88;;;1.60;;
43124;SDS011;49182;50.788;7.318;2023-06-14T09:19:55;3.63;;;1.73;;
43124;SDS011;49182;50.788;7.318;2023-06-14T09:22:24;3.40;;;1.63;;
43124;SDS011;49182;50.788;7.318;2023-06-14T09:24:50;4.13;;;1.48;;
43124;SDS011;49182;50.788;7.318;2023-06-14T09:27:17;3.13;;;1.35;;
43124;SDS011;49182;50.788;7.318;2023-06-14T09:29:43;3.28;;;1.35;;
43124;SDS011;49182;50.788;7.318;2023-06-14T09:32:10;3.30;;;1.40;;
43124;SDS011;49182;50.788;7.318;2023-06-14T09:34:37;4.25;;;1.40;;
43124;SDS011;49182;50.788;7.318;2023-06-14T09:37:04;5.22;;;1.48;;
43124;SDS011;49182;50.788;7.318;2023-06-14T09:39:32;3.35;;;1.65;;
43124;SDS011;49182;50.788;7.318;2023-06-14T09:41:59;6.15;;;1.45;;
43124;SDS011;49182;50.788;7.318;2023-06-14T09:44:26;3.10;;;1.45;;
43124;SDS011;49182;50.788;7.318;2023-06-14T09:46:53;5.63;;;1.60;;
43124;SDS011;49182;50.788;7.318;2023-06-14T09:49:21;5.03;;;1.52;;
43124;SDS011;49182;50.788;7.318;2023-06-14T09:51:49;4.45;;;1.40;;
43124;SDS011;49182;50.788;7.318;2023-06-14T09:54:20;4.18;;;1.58;;
43124;SDS011;49182;50.788;7.318;2023-06-14T09:56:50;3.20;;;1.45;;
43124;SDS011;49182;50.788;7.318;2023-06-14T09:59:19;3.92;;;1.30;;
43124;SDS011;49182;50.788;7.318;2023-06-14T10:01:47;3.50;;;1.45;;
43124;SDS011;49182;50.788;7.318;2023-06-14T10:04:15;4.72;;;1.52;;
43124;SDS011;49182;50.788;7.318;2023-06-14T10:06:48;4.07;;;1.50;;
43124;SDS011;49182;50.788;7.318;2023-06-14T10:09:17;5.07;;;1.60;;
43124;SDS011;49182;50.788;7.318;2023-06-14T10:11:43;3.15;;;1.55;;
43124;SDS011;49182;50.788;7.318;2023-06-14T10:14:13;3.63;;;1.30;;
43124;SDS011;49182;50.788;7.318;2023-06-14T10:16:42;3.63;;;1.60;;
43124;SDS011;49182;50.788;7.318;2023-06-14T10:19:17;3.88;;;1.40;;
43124;SDS011;49182;50.788;7.318;2023-06-14T10:21:51;3.00;;;1.45;;
43124;SDS011;49182;50.788;7.318;2023-06-14T10:24:24;5.43;;;1.60;;
43124;SDS011;49182;50.788;7.318;2023-06-14T10:26:56;3.60;;;1.48;;
43124;SDS011;49182;50.788;7.318;2023-06-14T10:29:27;3.75;;;1.88;;
43124;SDS011;49182;50.788;7.318;2023-06-14T10:31:56;4.55;;;2.00;;
43124;SDS011;49182;50.788;7.318;2023-06-14T10:34:24;5.15;;;1.67;;
43124;SDS011;49182;50.788;7.318;2023-06-14T10:37:01;3.55;;;1.50;;
43124;SDS011;49182;50.788;7.318;2023-06-14T10:39:30;3.97;;;1.85;;
43124;SDS011;49182;50.788;7.318;2023-06-14T10:41:57;5.72;;;1.50;;
43124;SDS011;49182;50.788;7.318;2023-06-14T10:47:06;3.10;;;1.30;;
43124;SDS011;49182;50.788;7.318;2023-06-14T10:49:38;3.42;;;1.40;;
43124;SDS011;49182;50.788;7.318;2023-06-14T10:52:07;4.55;;;1.70;;
43124;SDS011;49182;50.788;7.318;2023-06-14T10:54:34;2.42;;;1.23;;
43124;SDS011;49182;50.788;7.318;2023-06-14T10:57:01;3.03;;;1.30;;
43124;SDS011;49182;50.788;7.318;2023-06-14T10:59:28;3.85;;;1.33;;
43124;SDS011;49182;50.788;7.318;2023-06-14T11:01:57;2.50;;;1.10;;
43124;SDS011;49182;50.788;7.318;2023-06-14T11:04:46;4.15;;;1.23;;
43124;SDS011;49182;50.788;7.318;2023-06-14T11:07:20;3.15;;;1.15;;
43124;SDS011;49182;50.788;7.318;2023-06-14T11:10:02;3.47;;;1.10;;
43124;SDS011;49182;50.788;7.318;2023-06-14T11:12:36;3.53;;;0.80;;
43124;SDS011;49182;50.788;7.318;2023-06-14T11:15:06;3.00;;;1.10;;
43124;SDS011;49182;50.788;7.318;2023-06-14T11:17:34;3.00;;;1.10;;
43124;SDS011;49182;50.788;7.318;2023-06-14T11:20:07;3.05;;;1.10;;
43124;SDS011;49182;50.788;7.318;2023-06-14T11:22:38;2.53;;;1.00;;
43124;SDS011;49182;50.788;7.318;2023-06-14T11:27:34;2.47;;;1.10;;
43124;SDS011;49182;50.788;7.318;2023-06-14T11:30:01;1.83;;;0.80;;
43124;SDS011;49182;50.788;7.318;2023-06-14T11:32:28;4.38;;;1.20;;
43124;SDS011;49182;50.788;7.318;2023-06-14T11:34:58;1.90;;;0.88;;
43124;SDS011;49182;50.788;7.318;2023-06-14T11:37:25;6.97;;;1.20;;
43124;SDS011;49182;50.788;7.318;2023-06-14T11:39:53;2.80;;;1.30;;
43124;SDS011;49182;50.788;7.318;2023-06-14T11:42:22;2.90;;;1.05;;
43124;SDS011;49182;50.788;7.318;2023-06-14T11:44:49;2.40;;;0.95;;
43124;SDS011;49182;50.788;7.318;2023-06-14T11:47:19;2.47;;;1.05;;
43124;SDS011;49182;50.788;7.318;2023-06-14T11:49:45;2.33;;;1.00;;
43124;SDS011;49182;50.788;7.318;2023-06-14T11:52:14;1.92;;;0.93;;
43124;SDS011;49182;50.788;7.318;2023-06-14T11:54:41;5.60;;;1.40;;
43124;SDS011;49182;50.788;7.318;2023-06-14T11:57:08;1.98;;;1.00;;
43124;SDS011;49182;50.788;7.318;2023-06-14T11:59:37;3.47;;;1.05;;
43124;SDS011;49182;50.788;7.318;2023-06-14T12:02:05;3.00;;;1.00;;
43124;SDS011;49182;50.788;7.318;2023-06-14T12:04:32;2.95;;;1.00;;
43124;SDS011;49182;50.788;7.318;2023-06-14T12:07:08;2.95;;;0.88;;
43124;SDS011;49182;50.788;7.318;2023-06-14T12:09:36;2.28;;;1.10;;
43124;SDS011;49182;50.788;7.318;2023-06-14T12:12:03;2.75;;;1.20;;
43124;SDS011;49182;50.788;7.318;2023-06-14T12:14:30;1.77;;;0.90;;
43124;SDS011;49182;50.788;7.318;2023-06-14T12:17:03;2.50;;;0.90;;
43124;SDS011;49182;50.788;7.318;2023-06-14T12:19:31;2.05;;;1.00;;
43124;SDS011;49182;50.788;7.318;2023-06-14T12:21:58;3.80;;;1.10;;
43124;SDS011;49182;50.788;7.318;2023-06-14T12:24:27;5.10;;;1.40;;
43124;SDS011;49182;50.788;7.318;2023-06-14T12:26:57;3.35;;;1.20;;
43124;SDS011;49182;50.788;7.318;2023-06-14T12:29:24;3.25;;;1.33;;
43124;SDS011;49182;50.788;7.318;2023-06-14T12:31:50;3.80;;;1.20;;
43124;SDS011;49182;50.788;7.318;2023-06-14T12:34:17;2.70;;;1.30;;
43124;SDS011;49182;50.788;7.318;2023-06-14T12:36:44;4.20;;;1.50;;
43124;SDS011;49182;50.788;7.318;2023-06-14T12:39:11;3.95;;;1.35;;
43124;SDS011;49182;50.788;7.318;2023-06-14T12:41:38;3.00;;;1.30;;
43124;SDS011;49182;50.788;7.318;2023-06-14T12:44:06;3.50;;;1.40;;
43124;SDS011;49182;50.788;7.318;2023-06-14T12:46:33;2.72;;;1.50;;
43124;SDS011;49182;50.788;7.318;2023-06-14T12:49:00;3.50;;;1.40;;
43124;SDS011;49182;50.788;7.318;2023-06-14T12:51:27;7.20;;;1.80;;
43124;SDS011;49182;50.788;7.318;2023-06-14T12:53:53;2.80;;;1.58;;
43124;SDS011;49182;50.788;7.318;2023-06-14T12:56:21;6.78;;;1.65;;
43124;SDS011;49182;50.788;7.318;2023-06-14T12:58:50;4.28;;;1.45;;
43124;SDS011;49182;50.788;7.318;2023-06-14T13:01:18;3.25;;;1.40;;
43124;SDS011;49182;50.788;7.318;2023-06-14T13:03:46;2.95;;;1.40;;
43124;SDS011;49182;50.788;7.318;2023-06-14T13:06:13;4.75;;;1.50;;
43124;SDS011;49182;50.788;7.318;2023-06-14T13:08:39;3.58;;;2.03;;
43124;SDS011;49182;50.788;7.318;2023-06-14T13:11:06;3.03;;;1.30;;
43124;SDS011;49182;50.788;7.318;2023-06-14T13:13:33;3.40;;;1.70;;
43124;SDS011;49182;50.788;7.318;2023-06-14T13:16:01;3.72;;;1.63;;
43124;SDS011;49182;50.788;7.318;2023-06-14T13:18:30;6.80;;;1.33;;
43124;SDS011;49182;50.788;7.318;2023-06-14T13:20:56;12.32;;;1.70;;
43124;SDS011;49182;50.788;7.318;2023-06-14T13:23:23;2.35;;;1.20;;
43124;SDS011;49182;50.788;7.318;2023-06-14T13:25:49;2.65;;;1.35;;
43124;SDS011;49182;50.788;7.318;2023-06-14T13:28:16;3.50;;;1.50;;
43124;SDS011;49182;50.788;7.318;2023-06-14T13:30:43;3.30;;;1.60;;
43124;SDS011;49182;50.788;7.318;2023-06-14T13:33:10;4.93;;;1.33;;
43124;SDS011;49182;50.788;7.318;2023-06-14T13:35:38;2.70;;;1.35;;
43124;SDS011;49182;50.788;7.318;2023-06-14T13:38:05;4.95;;;1.40;;
43124;SDS011;49182;50.788;7.318;2023-06-14T13:40:31;2.38;;;1.20;;
43124;SDS011;49182;50.788;7.318;2023-06-14T13:42:58;3.28;;;1.40;;
43124;SDS011;49182;50.788;7.318;2023-06-14T13:45:24;7.38;;;1.50;;
43124;SDS011;49182;50.788;7.318;2023-06-14T13:47:51;2.58;;;1.40;;
43124;SDS011;49182;50.788;7.318;2023-06-14T13:50:18;9.80;;;1.60;;
43124;SDS011;49182;50.788;7.318;2023-06-14T13:52:46;8.38;;;1.42;;
43124;SDS011;49182;50.788;7.318;2023-06-14T13:55:13;3.67;;;1.20;;
43124;SDS011;49182;50.788;7.318;2023-06-14T13:57:40;4.43;;;1.63;;
43124;SDS011;49182;50.788;7.318;2023-06-14T14:00:07;3.63;;;1.58;;
43124;SDS011;49182;50.788;7.318;2023-06-14T14:02:41;2.80;;;1.40;;
43124;SDS011;49182;50.788;7.318;2023-06-14T14:05:08;4.95;;;1.40;;
43124;SDS011;49182;50.788;7.318;2023-06-14T14:07:35;3.38;;;1.58;;
43124;SDS011;49182;50.788;7.318;2023-06-14T14:10:03;3.80;;;1.27;;
43124;SDS011;49182;50.788;7.318;2023-06-14T14:12:30;3.75;;;1.42;;
43124;SDS011;49182;50.788;7.318;2023-06-14T14:14:57;6.28;;;1.83;;
43124;SDS011;49182;50.788;7.318;2023-06-14T14:17:23;3.05;;;1.40;;
43124;SDS011;49182;50.788;7.318;2023-06-14T14:19:50;2.53;;;1.50;;
43124;SDS011;49182;50.788;7.318;2023-06-14T14:22:17;2.63;;;1.27;;
43124;SDS011;49182;50.788;7.318;2023-06-14T14:24:43;3.70;;;1.27;;
43124;SDS011;49182;50.788;7.318;2023-06-14T14:27:11;2.70;;;1.40;;
43124;SDS011;49182;50.788;7.318;2023-06-14T14:29:38;3.35;;;1.45;;
43124;SDS011;49182;50.788;7.318;2023-06-14T14:32:05;2.72;;;1.40;;
43124;SDS011;49182;50.788;7.318;2023-06-14T14:34:33;7.60;;;2.00;;
43124;SDS011;49182;50.788;7.318;2023-06-14T14:36:59;4.65;;;1.45;;
43124;SDS011;49182;50.788;7.318;2023-06-14T14:39:26;3.42;;;1.15;;
43124;SDS011;49182;50.788;7.318;2023-06-14T14:41:53;2.75;;;1.30;;
43124;SDS011;49182;50.788;7.318;2023-06-14T14:44:21;3.10;;;1.52;;
43124;SDS011;49182;50.788;7.318;2023-06-14T14:46:47;4.22;;;1.48;;
43124;SDS011;49182;50.788;7.318;2023-06-14T14:49:14;4.15;;;1.48;;
43124;SDS011;49182;50.788;7.318;2023-06-14T14:51:41;5.88;;;1.50;;
43124;SDS011;49182;50.788;7.318;2023-06-14T14:54:08;3.85;;;1.48;;